Bancroft, Iowa
Current Conditions -  °F | °C
As of 11:35 PM on Wednesday 22 Oct 2014 (Local Time) from KAXA Reporting Station
Overcast Overcast  
Wind Chill: 55°   Ceiling: 7500
Heat Index: 55°   Visibility: 9mi
Dew Point: 52°   Wind: 15mph
Humidity: 88%   Direction: 170°S
Pressure: 30.05"   Gusts: NA
Location:  43.29°N, 94.22°W
Report Text: KAXA 230435Z AUTO 17013KT 9SM FEW019 BKN075 OVC095 13/11 A3005 RMK AO2
Loading
Personal Weather Stations






























Interactive Weather Map
Tropical Storm Tracking
New forecast layout! Learn more

10-Day Weather Forecast

Advertisements
Track Severe Weather on mobile